sensor_id;sensor_type;location;lat;lon;timestamp;pressure;altitude;pressure_sealevel;temperature;humidity
59409;BME280;45213;32.654;-115.458;2023-02-17T00:00:59;102368.03;;;18.44;13.45
59409;BME280;45213;32.654;-115.458;2023-02-17T00:03:26;102364.50;;;18.26;12.58
59409;BME280;45213;32.654;-115.458;2023-02-17T00:05:52;102353.03;;;18.16;12.86
59409;BME280;45213;32.654;-115.458;2023-02-17T00:08:19;102354.81;;;18.14;13.52
59409;BME280;45213;32.654;-115.458;2023-02-17T00:10:54;102351.28;;;18.09;13.28
59409;BME280;45213;32.654;-115.458;2023-02-17T00:13:21;102347.72;;;17.92;13.29
59409;BME280;45213;32.654;-115.458;2023-02-17T00:15:48;102344.19;;;17.90;13.60
59409;BME280;45213;32.654;-115.458;2023-02-17T00:18:14;102352.84;;;17.69;13.39
59409;BME280;45213;32.654;-115.458;2023-02-17T00:20:41;102347.69;;;17.83;14.29
59409;BME280;45213;32.654;-115.458;2023-02-17T00:23:08;102339.81;;;17.95;14.41
59409;BME280;45213;32.654;-115.458;2023-02-17T00:25:35;102344.22;;;18.01;14.30
59409;BME280;45213;32.654;-115.458;2023-02-17T00:28:02;102347.69;;;17.83;13.50
59409;BME280;45213;32.654;-115.458;2023-02-17T00:30:29;102342.34;;;17.77;14.20
59409;BME280;45213;32.654;-115.458;2023-02-17T00:32:56;102333.50;;;17.59;14.30
59409;BME280;45213;32.654;-115.458;2023-02-17T00:35:23;102344.03;;;17.59;13.52
59409;BME280;45213;32.654;-115.458;2023-02-17T00:37:49;102340.44;;;17.45;13.25
59409;BME280;45213;32.654;-115.458;2023-02-17T00:40:16;102344.84;;;17.44;14.07
59409;BME280;45213;32.654;-115.458;2023-02-17T00:42:43;102338.63;;;17.31;15.69
59409;BME280;45213;32.654;-115.458;2023-02-17T00:45:09;102335.91;;;17.15;13.72
59409;BME280;45213;32.654;-115.458;2023-02-17T00:47:36;102338.47;;;17.08;14.03
59409;BME280;45213;32.654;-115.458;2023-02-17T00:50:04;102344.59;;;17.06;13.99
59409;BME280;45213;32.654;-115.458;2023-02-17T00:52:31;102348.00;;;16.91;14.93
59409;BME280;45213;32.654;-115.458;2023-02-17T00:54:58;102353.06;;;16.69;15.06
59409;BME280;45213;32.654;-115.458;2023-02-17T00:57:25;102360.94;;;16.71;14.78
59409;BME280;45213;32.654;-115.458;2023-02-17T00:59:52;102348.59;;;16.61;14.32
59409;BME280;45213;32.654;-115.458;2023-02-17T01:02:18;102341.53;;;16.54;15.62
59409;BME280;45213;32.654;-115.458;2023-02-17T01:04:45;102343.16;;;16.44;15.88
59409;BME280;45213;32.654;-115.458;2023-02-17T01:07:14;102348.28;;;16.28;15.65
59409;BME280;45213;32.654;-115.458;2023-02-17T01:09:41;102343.88;;;16.27;15.45
59409;BME280;45213;32.654;-115.458;2023-02-17T01:12:10;102340.25;;;16.15;16.10
59409;BME280;45213;32.654;-115.458;2023-02-17T01:14:37;102355.91;;;16.04;16.53
59409;BME280;45213;32.654;-115.458;2023-02-17T01:17:06;102361.09;;;15.99;16.81
59409;BME280;45213;32.654;-115.458;2023-02-17T01:19:33;102367.09;;;15.89;16.31
59409;BME280;45213;32.654;-115.458;2023-02-17T01:22:00;102362.59;;;15.80;15.77
59409;BME280;45213;32.654;-115.458;2023-02-17T01:24:27;102360.69;;;15.69;17.49
59409;BME280;45213;32.654;-115.458;2023-02-17T01:26:55;102351.69;;;15.50;17.31
59409;BME280;45213;32.654;-115.458;2023-02-17T01:29:22;102360.28;;;15.39;18.62
59409;BME280;45213;32.654;-115.458;2023-02-17T01:31:48;102370.72;;;15.35;17.89
59409;BME280;45213;32.654;-115.458;2023-02-17T01:34:15;102370.69;;;15.32;19.62
59409;BME280;45213;32.654;-115.458;2023-02-17T01:36:42;102356.66;;;15.30;19.09
59409;BME280;45213;32.654;-115.458;2023-02-17T01:39:13;102358.34;;;15.24;19.10
59409;BME280;45213;32.654;-115.458;2023-02-17T01:41:41;102361.59;;;15.10;18.16
59409;BME280;45213;32.654;-115.458;2023-02-17T01:44:15;102359.78;;;15.04;19.32
59409;BME280;45213;32.654;-115.458;2023-02-17T01:46:46;102368.31;;;14.91;18.45
59409;BME280;45213;32.654;-115.458;2023-02-17T01:52:09;102377.69;;;14.78;19.85
59409;BME280;45213;32.654;-115.458;2023-02-17T01:55:00;102372.38;;;14.73;19.51
59409;BME280;45213;32.654;-115.458;2023-02-17T01:57:30;102375.78;;;14.69;20.46
59409;BME280;45213;32.654;-115.458;2023-02-17T01:59:58;102373.91;;;14.62;20.39
59409;BME280;45213;32.654;-115.458;2023-02-17T02:02:25;102377.22;;;14.52;20.50
59409;BME280;45213;32.654;-115.458;2023-02-17T02:04:55;102377.13;;;14.47;20.75
59409;BME280;45213;32.654;-115.458;2023-02-17T02:07:27;102377.94;;;14.43;20.54
59409;BME280;45213;32.654;-115.458;2023-02-17T02:09:56;102384.81;;;14.38;22.07
59409;BME280;45213;32.654;-115.458;2023-02-17T02:12:27;102382.03;;;14.29;21.28
59409;BME280;45213;32.654;-115.458;2023-02-17T02:15:06;102384.56;;;14.26;22.30
59409;BME280;45213;32.654;-115.458;2023-02-17T02:17:51;102379.09;;;14.13;21.75
59409;BME280;45213;32.654;-115.458;2023-02-17T02:30:02;102379.63;;;13.95;22.53
59409;BME280;45213;32.654;-115.458;2023-02-17T02:35:35;102380.41;;;13.91;22.90
59409;BME280;45213;32.654;-115.458;2023-02-17T02:38:40;102369.97;;;13.93;24.63
59409;BME280;45213;32.654;-115.458;2023-02-17T02:41:24;102361.00;;;13.82;23.26
59409;BME280;45213;32.654;-115.458;2023-02-17T02:43:52;102371.28;;;13.72;24.00
59409;BME280;45213;32.654;-115.458;2023-02-17T02:46:23;102370.41;;;13.72;22.73
59409;BME280;45213;32.654;-115.458;2023-02-17T02:48:50;102372.94;;;13.69;23.13
59409;BME280;45213;32.654;-115.458;2023-02-17T02:51:46;102369.34;;;13.64;23.28
59409;BME280;45213;32.654;-115.458;2023-02-17T03:00:32;102380.13;;;13.38;22.09
59409;BME280;45213;32.654;-115.458;2023-02-17T03:06:11;102398.03;;;13.23;20.96
59409;BME280;45213;32.654;-115.458;2023-02-17T03:08:59;102400.84;;;13.29;21.43
59409;BME280;45213;32.654;-115.458;2023-02-17T03:11:28;102400.97;;;13.35;20.56
59409;BME280;45213;32.654;-115.458;2023-02-17T03:14:07;102395.63;;;13.29;20.95
59409;BME280;45213;32.654;-115.458;2023-02-17T03:16:36;102393.84;;;13.28;20.94
59409;BME280;45213;32.654;-115.458;2023-02-17T03:19:05;102406.88;;;13.26;21.24
59409;BME280;45213;32.654;-115.458;2023-02-17T03:21:51;102404.97;;;13.21;21.59
59409;BME280;45213;32.654;-115.458;2023-02-17T03:24:18;102408.56;;;13.26;21.68
59409;BME280;45213;32.654;-115.458;2023-02-17T03:26:45;102407.75;;;13.27;22.86
59409;BME280;45213;32.654;-115.458;2023-02-17T03:29:12;102413.75;;;13.23;22.08
59409;BME280;45213;32.654;-115.458;2023-02-17T03:31:40;102401.53;;;13.22;22.83
59409;BME280;45213;32.654;-115.458;2023-02-17T03:34:08;102409.28;;;13.19;20.97
59409;BME280;45213;32.654;-115.458;2023-02-17T03:36:35;102414.44;;;13.15;21.54
59409;BME280;45213;32.654;-115.458;2023-02-17T03:39:02;102415.22;;;13.11;22.33
59409;BME280;45213;32.654;-115.458;2023-02-17T03:41:29;102417.66;;;13.05;23.48
59409;BME280;45213;32.654;-115.458;2023-02-17T03:43:56;102410.63;;;13.03;22.78
59409;BME280;45213;32.654;-115.458;2023-02-17T03:46:23;102416.69;;;13.00;22.93
59409;BME280;45213;32.654;-115.458;2023-02-17T03:48:50;102419.22;;;12.97;23.36
59409;BME280;45213;32.654;-115.458;2023-02-17T03:51:19;102413.03;;;12.93;22.54
59409;BME280;45213;32.654;-115.458;2023-02-17T03:53:47;102414.75;;;12.93;22.27
59409;BME280;45213;32.654;-115.458;2023-02-17T03:56:16;102416.31;;;12.86;22.97
59409;BME280;45213;32.654;-115.458;2023-02-17T03:58:46;102404.06;;;12.84;24.90
59409;BME280;45213;32.654;-115.458;2023-02-17T04:01:15;102412.56;;;12.75;23.30
59409;BME280;45213;32.654;-115.458;2023-02-17T04:03:42;102410.63;;;12.68;23.70
59409;BME280;45213;32.654;-115.458;2023-02-17T04:06:10;102413.03;;;12.60;24.13
59409;BME280;45213;32.654;-115.458;2023-02-17T04:08:39;102407.72;;;12.57;24.93
59409;BME280;45213;32.654;-115.458;2023-02-17T04:11:09;102407.53;;;12.51;24.32
59409;BME280;45213;32.654;-115.458;2023-02-17T04:13:37;102401.44;;;12.50;24.42
59409;BME280;45213;32.654;-115.458;2023-02-17T04:16:07;102401.38;;;12.49;24.13
59409;BME280;45213;32.654;-115.458;2023-02-17T04:18:35;102400.38;;;12.44;25.10
59409;BME280;45213;32.654;-115.458;2023-02-17T04:21:03;102409.09;;;12.43;25.41
59409;BME280;45213;32.654;-115.458;2023-02-17T04:23:31;102405.53;;;12.41;24.63
59409;BME280;45213;32.654;-115.458;2023-02-17T04:25:58;102408.97;;;12.40;25.67
59409;BME280;45213;32.654;-115.458;2023-02-17T04:28:25;102410.78;;;12.41;24.46
59409;BME280;45213;32.654;-115.458;2023-02-17T04:30:52;102406.28;;;12.37;23.77
59409;BME280;45213;32.654;-115.458;2023-02-17T04:33:19;102408.66;;;12.27;24.58
59409;BME280;45213;32.654;-115.458;2023-02-17T04:35:46;102406.84;;;12.25;24.12
59409;BME280;45213;32.654;-115.458;2023-02-17T04:38:14;102398.56;;;12.09;23.61
59409;BME280;45213;32.654;-115.458;2023-02-17T04:40:41;102403.00;;;12.12;23.88
59409;BME280;45213;32.654;-115.458;2023-02-17T04:43:08;102399.25;;;12.02;24.40
59409;BME280;45213;32.654;-115.458;2023-02-17T04:45:37;102403.47;;;11.97;25.07
59409;BME280;45213;32.654;-115.458;2023-02-17T04:48:04;102400.78;;;11.96;24.75
59409;BME280;45213;32.654;-115.458;2023-02-17T04:50:33;102400.97;;;12.02;24.61
59409;BME280;45213;32.654;-115.458;2023-02-17T04:53:00;102400.78;;;11.96;23.86
59409;BME280;45213;32.654;-115.458;2023-02-17T04:55:27;102397.25;;;11.94;25.11
59409;BME280;45213;32.654;-115.458;2023-02-17T04:57:54;102402.38;;;11.90;25.09
59409;BME280;45213;32.654;-115.458;2023-02-17T05:00:21;102399.59;;;11.86;24.88
59409;BME280;45213;32.654;-115.458;2023-02-17T05:02:48;102396.75;;;11.78;24.76
59409;BME280;45213;32.654;-115.458;2023-02-17T05:05:15;102401.16;;;11.81;25.45
59409;BME280;45213;32.654;-115.458;2023-02-17T05:07:44;102402.56;;;11.68;24.71
59409;BME280;45213;32.654;-115.458;2023-02-17T05:10:13;102407.81;;;11.69;27.03
59409;BME280;45213;32.654;-115.458;2023-02-17T05:12:40;102401.63;;;11.66;25.08
59409;BME280;45213;32.654;-115.458;2023-02-17T05:15:07;102401.63;;;11.66;23.99
59409;BME280;45213;32.654;-115.458;2023-02-17T05:17:34;102405.97;;;11.67;24.18
59409;BME280;45213;32.654;-115.458;2023-02-17T05:20:01;102408.59;;;11.67;24.42
59409;BME280;45213;32.654;-115.458;2023-02-17T05:22:28;102406.13;;;11.71;24.77
59409;BME280;45213;32.654;-115.458;2023-02-17T05:24:55;102407.81;;;11.69;24.97
59409;BME280;45213;32.654;-115.458;2023-02-17T05:27:22;102405.81;;;11.61;24.54
59409;BME280;45213;32.654;-115.458;2023-02-17T05:29:49;102402.13;;;11.54;24.69
59409;BME280;45213;32.654;-115.458;2023-02-17T05:32:17;102410.63;;;11.48;25.00
59409;BME280;45213;32.654;-115.458;2023-02-17T05:34:44;102405.88;;;11.35;25.61
59409;BME280;45213;32.654;-115.458;2023-02-17T05:37:11;102406.72;;;11.34;25.27
59409;BME280;45213;32.654;-115.458;2023-02-17T05:39:38;102407.50;;;11.32;25.50
59409;BME280;45213;32.654;-115.458;2023-02-17T05:42:08;102403.91;;;11.28;27.44
59409;BME280;45213;32.654;-115.458;2023-02-17T05:44:35;102405.56;;;11.26;25.37
59409;BME280;45213;32.654;-115.458;2023-02-17T05:47:02;102402.16;;;11.27;25.46
59409;BME280;45213;32.654;-115.458;2023-02-17T05:49:29;102401.34;;;11.29;25.33
59409;BME280;45213;32.654;-115.458;2023-02-17T05:51:56;102403.81;;;11.25;25.77
59409;BME280;45213;32.654;-115.458;2023-02-17T05:54:22;102403.81;;;11.25;25.29
59409;BME280;45213;32.654;-115.458;2023-02-17T05:56:49;102405.56;;;11.26;25.12
59409;BME280;45213;32.654;-115.458;2023-02-17T05:59:15;102406.13;;;11.16;25.62
59409;BME280;45213;32.654;-115.458;2023-02-17T06:01:42;102411.94;;;11.07;24.88
59409;BME280;45213;32.654;-115.458;2023-02-17T06:04:08;102409.25;;;11.05;24.97
59409;BME280;45213;32.654;-115.458;2023-02-17T06:06:35;102409.97;;;11.00;25.31
59409;BME280;45213;32.654;-115.458;2023-02-17T06:09:02;102405.38;;;10.93;26.16
59409;BME280;45213;32.654;-115.458;2023-02-17T06:11:28;102408.66;;;10.87;26.24
59409;BME280;45213;32.654;-115.458;2023-02-17T06:13:55;102408.44;;;10.81;27.40
59409;BME280;45213;32.654;-115.458;2023-02-17T06:16:22;102410.88;;;10.76;27.55
59409;BME280;45213;32.654;-115.458;2023-02-17T06:18:48;102397.75;;;10.73;26.93
59409;BME280;45213;32.654;-115.458;2023-02-17T06:21:15;102400.91;;;10.63;26.81
59409;BME280;45213;32.654;-115.458;2023-02-17T06:23:42;102395.69;;;10.63;26.76
59409;BME280;45213;32.654;-115.458;2023-02-17T06:26:08;102391.34;;;10.63;26.48
59409;BME280;45213;32.654;-115.458;2023-02-17T06:28:35;102391.22;;;10.60;26.46
59409;BME280;45213;32.654;-115.458;2023-02-17T06:31:02;102393.13;;;10.64;26.29
59409;BME280;45213;32.654;-115.458;2023-02-17T06:33:29;102387.59;;;10.55;26.60
59409;BME280;45213;32.654;-115.458;2023-02-17T06:35:55;102382.19;;;10.49;27.85
59409;BME280;45213;32.654;-115.458;2023-02-17T06:38:22;102388.31;;;10.51;28.18
59409;BME280;45213;32.654;-115.458;2023-02-17T06:40:48;102386.41;;;10.45;27.49
59409;BME280;45213;32.654;-115.458;2023-02-17T06:43:15;102385.19;;;10.36;28.00
59409;BME280;45213;32.654;-115.458;2023-02-17T06:45:42;102380.38;;;10.24;27.69
59409;BME280;45213;32.654;-115.458;2023-02-17T06:48:08;102389.81;;;10.20;27.66
59409;BME280;45213;32.654;-115.458;2023-02-17T06:50:35;102393.13;;;10.16;27.77
59409;BME280;45213;32.654;-115.458;2023-02-17T06:53:02;102388.78;;;10.17;27.91
59409;BME280;45213;32.654;-115.458;2023-02-17T06:55:29;102386.25;;;10.18;27.88
59409;BME280;45213;32.654;-115.458;2023-02-17T06:57:56;102377.88;;;10.03;28.41
59409;BME280;45213;32.654;-115.458;2023-02-17T07:00:22;102377.88;;;10.03;28.09
59409;BME280;45213;32.654;-115.458;2023-02-17T07:02:49;102384.81;;;10.02;28.72
59409;BME280;45213;32.654;-115.458;2023-02-17T07:05:16;102387.34;;;10.01;28.10
59409;BME280;45213;32.654;-115.458;2023-02-17T07:07:42;102368.00;;;9.93;26.94
59409;BME280;45213;32.654;-115.458;2023-02-17T07:10:09;102383.78;;;9.97;26.89
59409;BME280;45213;32.654;-115.458;2023-02-17T07:12:36;102377.63;;;9.95;26.89
59409;BME280;45213;32.654;-115.458;2023-02-17T07:15:03;102379.81;;;9.85;27.03
59409;BME280;45213;32.654;-115.458;2023-02-17T07:17:30;102384.66;;;9.75;26.64
59409;BME280;45213;32.654;-115.458;2023-02-17T07:19:57;102381.66;;;9.65;26.99
59409;BME280;45213;32.654;-115.458;2023-02-17T07:22:23;102381.44;;;9.58;27.06
59409;BME280;45213;32.654;-115.458;2023-02-17T07:24:51;102381.66;;;9.65;27.36
59409;BME280;45213;32.654;-115.458;2023-02-17T07:27:18;102372.72;;;9.58;28.20
59409;BME280;45213;32.654;-115.458;2023-02-17T07:29:45;102381.19;;;9.52;28.05
59409;BME280;45213;32.654;-115.458;2023-02-17T07:32:11;102372.00;;;9.39;27.00
59409;BME280;45213;32.654;-115.458;2023-02-17T07:34:38;102379.00;;;9.40;27.77
59409;BME280;45213;32.654;-115.458;2023-02-17T07:37:05;102372.72;;;9.35;28.55
59409;BME280;45213;32.654;-115.458;2023-02-17T07:39:33;102378.88;;;9.37;28.02
59409;BME280;45213;32.654;-115.458;2023-02-17T07:41:59;102376.16;;;9.34;27.86
59409;BME280;45213;32.654;-115.458;2023-02-17T07:44:27;102370.97;;;9.34;29.12
59409;BME280;45213;32.654;-115.458;2023-02-17T07:46:53;102362.78;;;9.25;29.18
59409;BME280;45213;32.654;-115.458;2023-02-17T07:49:20;102366.78;;;9.17;29.11
59409;BME280;45213;32.654;-115.458;2023-02-17T07:51:47;102371.47;;;9.26;29.48
59409;BME280;45213;32.654;-115.458;2023-02-17T07:54:14;102373.00;;;9.20;29.06
59409;BME280;45213;32.654;-115.458;2023-02-17T07:56:41;102373.41;;;9.09;29.48
59409;BME280;45213;32.654;-115.458;2023-02-17T07:59:09;102369.97;;;9.10;28.96
59409;BME280;45213;32.654;-115.458;2023-02-17T08:01:36;102365.78;;;9.13;29.90
59409;BME280;45213;32.654;-115.458;2023-02-17T08:04:04;102368.97;;;9.06;29.23
59409;BME280;45213;32.654;-115.458;2023-02-17T08:06:31;102363.91;;;9.09;31.25
59409;BME280;45213;32.654;-115.458;2023-02-17T08:08:57;102358.50;;;9.05;29.69
59409;BME280;45213;32.654;-115.458;2023-02-17T08:11:42;102354.13;;;9.04;29.96
59409;BME280;45213;32.654;-115.458;2023-02-17T08:14:28;102356.69;;;9.02;30.34
59409;BME280;45213;32.654;-115.458;2023-02-17T08:16:56;102349.88;;;9.06;30.95
59409;BME280;45213;32.654;-115.458;2023-02-17T08:19:22;102360.09;;;9.01;30.83
59409;BME280;45213;32.654;-115.458;2023-02-17T08:21:51;102354.00;;;9.01;31.21
59409;BME280;45213;32.654;-115.458;2023-02-17T08:24:18;102352.81;;;8.92;29.90
59409;BME280;45213;32.654;-115.458;2023-02-17T08:26:47;102352.69;;;8.89;29.40
59409;BME280;45213;32.654;-115.458;2023-02-17T08:29:14;102343.06;;;8.87;29.51
59409;BME280;45213;32.654;-115.458;2023-02-17T08:31:41;102344.13;;;8.92;30.25
59409;BME280;45213;32.654;-115.458;2023-02-17T08:34:09;102350.34;;;8.95;29.49
59409;BME280;45213;32.654;-115.458;2023-02-17T08:36:36;102346.91;;;8.96;30.03
59409;BME280;45213;32.654;-115.458;2023-02-17T08:39:05;102349.47;;;8.95;28.54
59409;BME280;45213;32.654;-115.458;2023-02-17T08:41:37;102346.78;;;8.93;28.72
59409;BME280;45213;32.654;-115.458;2023-02-17T08:44:10;102347.59;;;8.92;28.17
59409;BME280;45213;32.654;-115.458;2023-02-17T08:46:37;102348.31;;;8.88;28.60
59409;BME280;45213;32.654;-115.458;2023-02-17T08:49:05;102343.91;;;8.86;29.44
59409;BME280;45213;32.654;-115.458;2023-02-17T08:51:32;102335.00;;;8.81;28.24
59409;BME280;45213;32.654;-115.458;2023-02-17T08:54:00;102334.06;;;8.78;27.91
59409;BME280;45213;32.654;-115.458;2023-02-17T08:56:27;102332.38;;;8.79;28.10
59409;BME280;45213;32.654;-115.458;2023-02-17T08:58:54;102330.66;;;8.80;28.64
59409;BME280;45213;32.654;-115.458;2023-02-17T09:01:22;102332.47;;;8.82;29.10
59409;BME280;45213;32.654;-115.458;2023-02-17T09:03:50;102326.25;;;8.78;29.55
59409;BME280;45213;32.654;-115.458;2023-02-17T09:06:17;102326.16;;;8.75;29.71
59409;BME280;45213;32.654;-115.458;2023-02-17T09:08:43;102326.03;;;8.72;30.36
59409;BME280;45213;32.654;-115.458;2023-02-17T09:11:11;102322.22;;;8.64;29.65
59409;BME280;45213;32.654;-115.458;2023-02-17T09:13:40;102326.66;;;8.67;29.97
59409;BME280;45213;32.654;-115.458;2023-02-17T09:16:07;102321.25;;;8.62;31.17
59409;BME280;45213;32.654;-115.458;2023-02-17T09:18:34;102320.19;;;8.57;30.49
59409;BME280;45213;32.654;-115.458;2023-02-17T09:21:08;102311.19;;;8.49;30.13
59409;BME280;45213;32.654;-115.458;2023-02-17T09:23:35;102304.31;;;8.49;30.08
59409;BME280;45213;32.654;-115.458;2023-02-17T09:26:07;102303.19;;;8.44;29.80
59409;BME280;45213;32.654;-115.458;2023-02-17T09:28:35;102298.91;;;8.45;29.75
59409;BME280;45213;32.654;-115.458;2023-02-17T09:33:35;102293.50;;;8.40;30.92
59409;BME280;45213;32.654;-115.458;2023-02-17T09:36:03;102289.81;;;8.35;30.03
59409;BME280;45213;32.654;-115.458;2023-02-17T09:38:33;102271.38;;;8.29;29.42
59409;BME280;45213;32.654;-115.458;2023-02-17T09:41:17;102286.34;;;8.34;29.94
59409;BME280;45213;32.654;-115.458;2023-02-17T09:43:45;102285.66;;;8.39;29.36
59409;BME280;45213;32.654;-115.458;2023-02-17T09:46:17;102273.34;;;8.34;29.38
59409;BME280;45213;32.654;-115.458;2023-02-17T09:48:48;102280.13;;;8.31;30.20
59409;BME280;45213;32.654;-115.458;2023-02-17T09:51:41;102270.63;;;8.31;29.28
59409;BME280;45213;32.654;-115.458;2023-02-17T09:54:28;102271.59;;;8.33;28.92
59409;BME280;45213;32.654;-115.458;2023-02-17T09:56:57;102276.63;;;8.30;28.64
59409;BME280;45213;32.654;-115.458;2023-02-17T09:59:55;102266.94;;;8.26;28.57
59409;BME280;45213;32.654;-115.458;2023-02-17T10:05:03;102272.22;;;8.28;28.30
59409;BME280;45213;32.654;-115.458;2023-02-17T10:07:39;102266.41;;;8.33;28.83
59409;BME280;45213;32.654;-115.458;2023-02-17T10:10:14;102266.44;;;8.35;28.47
59409;BME280;45213;32.654;-115.458;2023-02-17T10:12:48;102251.56;;;8.31;28.30
59409;BME280;45213;32.654;-115.458;2023-02-17T10:15:22;102252.47;;;8.31;28.51
59409;BME280;45213;32.654;-115.458;2023-02-17T10:18:00;102252.50;;;8.33;29.23
59409;BME280;45213;32.654;-115.458;2023-02-17T10:20:38;102247.31;;;8.33;28.46
59409;BME280;45213;32.654;-115.458;2023-02-17T10:23:14;102247.47;;;8.36;28.39
59409;BME280;45213;32.654;-115.458;2023-02-17T10:31:11;102233.16;;;8.25;28.22
59409;BME280;45213;32.654;-115.458;2023-02-17T10:42:54;102212.41;;;8.25;28.00
59409;BME280;45213;32.654;-115.458;2023-02-17T10:45:34;102206.38;;;8.26;27.81
59409;BME280;45213;32.654;-115.458;2023-02-17T10:48:15;102213.91;;;8.20;27.83
59409;BME280;45213;32.654;-115.458;2023-02-17T10:50:45;102203.47;;;8.18;27.68
59409;BME280;45213;32.654;-115.458;2023-02-17T10:53:20;102193.28;;;8.23;27.26
59409;BME280;45213;32.654;-115.458;2023-02-17T11:00:56;102190.22;;;8.33;27.00
59409;BME280;45213;32.654;-115.458;2023-02-17T11:03:27;102189.22;;;8.29;25.99
59409;BME280;45213;32.654;-115.458;2023-02-17T11:06:00;102188.31;;;8.29;26.72
59409;BME280;45213;32.654;-115.458;2023-02-17T11:08:43;102175.16;;;8.24;26.68
59409;BME280;45213;32.654;-115.458;2023-02-17T11:11:20;102182.13;;;8.25;26.87
59409;BME280;45213;32.654;-115.458;2023-02-17T11:14:08;102176.84;;;8.22;27.86
59409;BME280;45213;32.654;-115.458;2023-02-17T11:16:42;102174.59;;;8.10;29.34
59409;BME280;45213;32.654;-115.458;2023-02-17T11:19:28;102175.16;;;8.03;27.92
59409;BME280;45213;32.654;-115.458;2023-02-17T11:21:57;102173.53;;;8.05;29.18
59409;BME280;45213;32.654;-115.458;2023-02-17T11:24:25;102173.84;;;7.92;29.72
59409;BME280;45213;32.654;-115.458;2023-02-17T11:27:03;102182.25;;;7.86;29.10
59409;BME280;45213;32.654;-115.458;2023-02-17T11:29:30;102182.56;;;7.94;29.23
59409;BME280;45213;32.654;-115.458;2023-02-17T11:32:10;102184.59;;;7.80;29.25
59409;BME280;45213;32.654;-115.458;2023-02-17T11:34:41;102179.09;;;7.53;29.56
59409;BME280;45213;32.654;-115.458;2023-02-17T11:39:41;102180.31;;;7.61;29.79
59409;BME280;45213;32.654;-115.458;2023-02-17T11:42:25;102184.09;;;7.69;29.36
59409;BME280;45213;32.654;-115.458;2023-02-17T11:44:54;102183.03;;;7.64;29.05
59409;BME280;45213;32.654;-115.458;2023-02-17T11:50:20;102172.16;;;7.52;29.04
59409;BME280;45213;32.654;-115.458;2023-02-17T11:53:07;102176.09;;;7.44;27.80
59409;BME280;45213;32.654;-115.458;2023-02-17T11:56:01;102175.53;;;7.51;28.01
59409;BME280;45213;32.654;-115.458;2023-02-17T12:01:49;102176.97;;;7.44;26.48
59409;BME280;45213;32.654;-115.458;2023-02-17T12:04:31;102178.28;;;7.54;26.19
59409;BME280;45213;32.654;-115.458;2023-02-17T12:07:13;102174.38;;;7.44;25.96
59409;BME280;45213;32.654;-115.458;2023-02-17T12:12:55;102174.47;;;7.65;25.83
59409;BME280;45213;32.654;-115.458;2023-02-17T12:15:51;102173.91;;;7.53;25.85
59409;BME280;45213;32.654;-115.458;2023-02-17T12:26:45;102166.75;;;7.47;26.79
59409;BME280;45213;32.654;-115.458;2023-02-17T12:34:55;102159.03;;;7.49;26.95
59409;BME280;45213;32.654;-115.458;2023-02-17T12:37:30;102152.38;;;7.54;27.08
59409;BME280;45213;32.654;-115.458;2023-02-17T12:39:58;102149.00;;;7.57;26.75
59409;BME280;45213;32.654;-115.458;2023-02-17T12:42:46;102154.19;;;7.57;27.54
59409;BME280;45213;32.654;-115.458;2023-02-17T12:45:34;102148.66;;;7.49;27.31
59409;BME280;45213;32.654;-115.458;2023-02-17T12:48:50;102143.34;;;7.46;27.33
59409;BME280;45213;32.654;-115.458;2023-02-17T12:51:18;102150.81;;;7.38;27.64
59409;BME280;45213;32.654;-115.458;2023-02-17T12:56:42;102140.09;;;7.50;28.46
59409;BME280;45213;32.654;-115.458;2023-02-17T12:59:32;102132.53;;;7.56;28.47
59409;BME280;45213;32.654;-115.458;2023-02-17T13:02:03;102132.50;;;7.55;28.18
59409;BME280;45213;32.654;-115.458;2023-02-17T13:04:31;102134.94;;;7.51;29.01
59409;BME280;45213;32.654;-115.458;2023-02-17T13:10:42;102127.81;;;7.46;29.34
59409;BME280;45213;32.654;-115.458;2023-02-17T13:13:34;102131.22;;;7.45;29.42
59409;BME280;45213;32.654;-115.458;2023-02-17T13:16:11;102129.63;;;7.48;29.72
59409;BME280;45213;32.654;-115.458;2023-02-17T13:18:43;102133.94;;;7.48;29.57
59409;BME280;45213;32.654;-115.458;2023-02-17T13:21:26;102131.84;;;7.39;29.95
59409;BME280;45213;32.654;-115.458;2023-02-17T13:24:05;102129.16;;;7.38;29.97
59409;BME280;45213;32.654;-115.458;2023-02-17T13:26:40;102122.81;;;7.31;30.22
59409;BME280;45213;32.654;-115.458;2023-02-17T13:32:01;102141.59;;;7.45;30.13
59409;BME280;45213;32.654;-115.458;2023-02-17T13:36:58;102134.63;;;7.44;30.42
59409;BME280;45213;32.654;-115.458;2023-02-17T13:41:57;102129.91;;;7.35;29.12
59409;BME280;45213;32.654;-115.458;2023-02-17T13:44:31;102130.31;;;7.44;29.51
59409;BME280;45213;32.654;-115.458;2023-02-17T13:49:28;102130.69;;;7.32;27.73
59409;BME280;45213;32.654;-115.458;2023-02-17T13:52:16;102126.25;;;7.30;27.09
59409;BME280;45213;32.654;-115.458;2023-02-17T13:55:16;102123.25;;;7.21;26.53
59409;BME280;45213;32.654;-115.458;2023-02-17T13:57:43;102128.53;;;7.22;26.35
59409;BME280;45213;32.654;-115.458;2023-02-17T14:00:31;102120.31;;;7.32;26.79
59409;BME280;45213;32.654;-115.458;2023-02-17T14:03:29;102128.66;;;7.25;26.45
59409;BME280;45213;32.654;-115.458;2023-02-17T14:06:00;102130.47;;;7.28;26.56
59409;BME280;45213;32.654;-115.458;2023-02-17T14:08:41;102132.94;;;7.25;26.92
59409;BME280;45213;32.654;-115.458;2023-02-17T14:13:37;102133.94;;;7.28;26.52
59409;BME280;45213;32.654;-115.458;2023-02-17T14:16:04;102143.75;;;7.36;26.82
59409;BME280;45213;32.654;-115.458;2023-02-17T14:18:38;102140.66;;;7.43;27.06